createdAt,value
2018-07-17T00:00:19.016Z,13.65
2018-07-17T00:01:18.752Z,13.68
2018-07-17T00:02:18.751Z,13.69
2018-07-17T00:03:18.744Z,13.66
2018-07-17T00:04:18.733Z,13.68
2018-07-17T00:05:18.730Z,13.73
2018-07-17T00:06:18.977Z,13.68
2018-07-17T00:07:19.008Z,13.68
2018-07-17T00:08:18.994Z,13.68
2018-07-17T00:09:19.005Z,13.75
2018-07-17T00:10:19.005Z,13.76
2018-07-17T00:11:18.738Z,13.73
2018-07-17T00:12:18.744Z,13.76
2018-07-17T00:13:18.689Z,13.72
2018-07-17T00:14:18.939Z,13.72
2018-07-17T00:15:18.922Z,13.72
2018-07-17T00:16:18.919Z,13.62
2018-07-17T00:17:18.649Z,13.72
2018-07-17T00:18:18.901Z,13.57
2018-07-17T00:19:18.898Z,13.63
2018-07-17T00:20:18.893Z,13.6
2018-07-17T00:21:18.633Z,13.69
2018-07-17T00:22:18.878Z,13.66
2018-07-17T00:23:18.871Z,13.65
2018-07-17T00:24:18.871Z,13.66
2018-07-17T00:25:18.859Z,13.62
2018-07-17T00:26:18.855Z,13.73
2018-07-17T00:27:18.590Z,13.69
2018-07-17T00:28:18.843Z,13.58
2018-07-17T00:29:18.838Z,13.69
2018-07-17T00:30:18.826Z,13.66
2018-07-17T00:31:18.818Z,13.6
2018-07-17T00:32:18.811Z,13.6
2018-07-17T00:33:18.806Z,13.55
2018-07-17T00:34:18.802Z,13.63
2018-07-17T00:35:18.796Z,13.51
2018-07-17T00:36:18.786Z,13.55
2018-07-17T00:37:18.780Z,13.53
2018-07-17T00:38:18.773Z,13.6
2018-07-17T00:39:18.772Z,13.54
2018-07-17T00:40:18.762Z,13.53
2018-07-17T00:41:18.754Z,13.53
2018-07-17T00:42:18.491Z,13.51
2018-07-17T00:43:18.484Z,13.6
2018-07-17T00:44:18.478Z,13.53
2018-07-17T00:45:18.730Z,13.57
2018-07-17T00:46:18.473Z,13.57
2018-07-17T00:47:18.716Z,13.5
2018-07-17T00:48:18.713Z,13.51
2018-07-17T00:49:18.445Z,13.5
2018-07-17T00:50:18.443Z,13.53
2018-07-17T00:51:18.690Z,13.47
2018-07-17T00:52:18.696Z,13.48
2018-07-17T00:53:18.423Z,13.53
2018-07-17T00:54:18.675Z,13.53
2018-07-17T00:55:18.664Z,13.5
2018-07-17T00:56:18.658Z,13.5
2018-07-17T00:57:18.653Z,13.5
2018-07-17T00:58:18.130Z,13.44
2018-07-17T00:59:18.392Z,13.44
2018-07-17T01:00:18.632Z,13.47
2018-07-17T01:01:18.748Z,13.42
2018-07-17T01:02:18.364Z,13.45
2018-07-17T01:03:18.612Z,13.5
2018-07-17T01:04:18.602Z,13.42
2018-07-17T01:05:18.596Z,13.42
2018-07-17T01:06:18.337Z,13.4
2018-07-17T01:07:18.200Z,13.44
2018-07-17T01:08:18.065Z,13.37
2018-07-17T01:09:18.315Z,13.27
2018-07-17T01:10:18.567Z,13.27
2018-07-17T01:11:18.560Z,13.36
2018-07-17T01:12:18.552Z,13.36
2018-07-17T01:13:18.291Z,13.25
2018-07-17T01:14:18.545Z,13.35
2018-07-17T01:15:18.276Z,13.35
2018-07-17T01:16:18.527Z,13.36
2018-07-17T01:17:18.520Z,13.31
2018-07-17T01:18:18.511Z,13.27
2018-07-17T01:19:18.507Z,13.36
2018-07-17T01:20:18.501Z,13.31
2018-07-17T01:21:18.501Z,13.31
2018-07-17T01:22:18.486Z,13.29
2018-07-17T01:23:18.485Z,13.21
2018-07-17T01:24:18.217Z,13.2
2018-07-17T01:25:18.466Z,13.2
2018-07-17T01:26:18.460Z,13.29
2018-07-17T01:27:18.458Z,13.36
2018-07-17T01:28:17.932Z,13.29
2018-07-17T01:29:18.440Z,13.29
2018-07-17T01:30:18.438Z,13.31
2018-07-17T01:31:18.427Z,13.29
2018-07-17T01:32:18.436Z,13.32
2018-07-17T01:33:18.158Z,13.27
2018-07-17T01:34:18.147Z,13.29
2018-07-17T01:35:18.398Z,13.27
2018-07-17T01:36:18.391Z,13.29
2018-07-17T01:37:18.385Z,13.31
2018-07-17T01:38:18.597Z,13.29
2018-07-17T01:39:18.115Z,13.31
2018-07-17T01:40:18.375Z,13.35
2018-07-17T01:41:18.363Z,13.28
2018-07-17T01:42:18.108Z,13.17
2018-07-17T01:43:18.351Z,13.21
2018-07-17T01:44:18.078Z,13.2
2018-07-17T01:45:18.339Z,13.25
2018-07-17T01:46:18.325Z,13.21
2018-07-17T01:47:18.319Z,13.21
2018-07-17T01:48:18.309Z,13.14
2018-07-17T01:49:18.304Z,13.09
2018-07-17T01:50:18.040Z,13.13
2018-07-17T01:51:18.293Z,13.14
2018-07-17T01:52:18.025Z,13.11
2018-07-17T01:53:18.279Z,13.16
2018-07-17T01:54:18.269Z,13.09
2018-07-17T01:55:18.016Z,13.09
2018-07-17T01:56:17.998Z,13.07
2018-07-17T01:57:18.260Z,13.13
2018-07-17T01:58:18.242Z,13.1
2018-07-17T01:59:18.233Z,13.09
2018-07-17T02:00:18.226Z,13.11
2018-07-17T02:01:17.965Z,13.03
2018-07-17T02:02:17.960Z,13.09
2018-07-17T02:03:18.206Z,13.14
2018-07-17T02:04:18.198Z,13.06
2018-07-17T02:05:17.938Z,13.13
2018-07-17T02:06:17.928Z,13.11
2018-07-17T02:07:17.921Z,13.13
2018-07-17T02:08:18.173Z,13.1
2018-07-17T02:09:18.164Z,13.14
2018-07-17T02:10:18.158Z,13.11
2018-07-17T02:11:17.894Z,13.1
2018-07-17T02:12:18.147Z,13.07
2018-07-17T02:13:17.883Z,13.1
2018-07-17T02:14:17.871Z,13.13
2018-07-17T02:15:17.865Z,13.1
2018-07-17T02:16:18.120Z,13.07
2018-07-17T02:17:18.112Z,13.06
2018-07-17T02:18:17.587Z,12.96
2018-07-17T02:19:17.839Z,12.94
2018-07-17T02:20:17.830Z,12.94
2018-07-17T02:21:17.825Z,12.98
2018-07-17T02:22:17.846Z,12.95
2018-07-17T02:23:18.083Z,12.94
2018-07-17T02:24:18.061Z,12.86
2018-07-17T02:25:18.054Z,12.98
2018-07-17T02:26:18.043Z,12.88
2018-07-17T02:27:17.779Z,12.88
2018-07-17T02:28:17.518Z,12.94
2018-07-17T02:29:18.023Z,12.83
2018-07-17T02:30:18.027Z,12.8
2018-07-17T02:31:17.756Z,12.88
2018-07-17T02:32:17.746Z,12.81
2018-07-17T02:33:18.000Z,12.89
2018-07-17T02:34:17.739Z,12.89
2018-07-17T02:35:17.728Z,12.89
2018-07-17T02:36:17.461Z,12.84
2018-07-17T02:37:17.971Z,12.86
2018-07-17T02:38:17.962Z,12.8
2018-07-17T02:39:17.953Z,12.83
2018-07-17T02:40:17.945Z,12.84
2018-07-17T02:41:17.948Z,12.8
2018-07-17T02:42:18.027Z,12.78
2018-07-17T02:43:17.665Z,12.78
2018-07-17T02:44:17.919Z,12.76
2018-07-17T02:45:17.912Z,12.74
2018-07-17T02:46:17.908Z,12.81
2018-07-17T02:47:17.898Z,12.83
2018-07-17T02:48:17.888Z,12.88
2018-07-17T02:49:17.881Z,12.86
2018-07-17T02:50:17.875Z,12.88
2018-07-17T02:51:17.614Z,12.88
2018-07-17T02:52:17.877Z,12.89
2018-07-17T02:53:17.598Z,12.84
2018-07-17T02:54:17.597Z,12.92
2018-07-17T02:55:17.854Z,12.77
2018-07-17T02:56:17.580Z,12.78
2018-07-17T02:57:17.570Z,12.74
2018-07-17T02:58:17.561Z,12.7
2018-07-17T02:59:17.299Z,12.74
2018-07-17T03:00:17.560Z,12.74
2018-07-17T03:01:17.796Z,12.69
2018-07-17T03:02:17.788Z,12.73
2018-07-17T03:03:17.783Z,12.76
2018-07-17T03:04:17.517Z,12.65
2018-07-17T03:05:17.771Z,12.71
2018-07-17T03:06:17.764Z,12.73
2018-07-17T03:07:17.899Z,12.71
2018-07-17T03:08:17.555Z,12.7
2018-07-17T03:09:17.744Z,12.73
2018-07-17T03:10:17.473Z,12.78
2018-07-17T03:11:17.729Z,12.81
2018-07-17T03:12:17.741Z,12.81
2018-07-17T03:13:17.457Z,12.81
2018-07-17T03:14:17.445Z,12.78
2018-07-17T03:15:17.698Z,12.8
2018-07-17T03:16:17.694Z,12.76
2018-07-17T03:17:17.683Z,12.8
2018-07-17T03:18:17.681Z,12.74
2018-07-17T03:19:17.408Z,12.7
2018-07-17T03:20:17.669Z,12.78
2018-07-17T03:21:17.394Z,12.78
2018-07-17T03:22:17.649Z,12.76
2018-07-17T03:23:17.643Z,12.77
2018-07-17T03:24:17.389Z,12.78
2018-07-17T03:25:17.627Z,12.76
2018-07-17T03:26:17.617Z,12.73
2018-07-17T03:27:17.607Z,12.78
2018-07-17T03:28:17.602Z,12.77
2018-07-17T03:29:17.593Z,12.78
2018-07-17T03:30:17.622Z,12.77
2018-07-17T03:31:17.584Z,12.78
2018-07-17T03:32:17.316Z,12.7
2018-07-17T03:33:17.568Z,12.73
2018-07-17T03:34:17.300Z,12.73
2018-07-17T03:35:17.295Z,12.73
2018-07-17T03:36:17.289Z,12.71
2018-07-17T03:37:17.537Z,12.73
2018-07-17T03:38:17.273Z,12.74
2018-07-17T03:39:17.524Z,12.73
2018-07-17T03:40:17.002Z,12.78
2018-07-17T03:41:17.511Z,12.74
2018-07-17T03:42:17.498Z,12.77
2018-07-17T03:43:17.236Z,12.81
2018-07-17T03:44:17.483Z,12.78
2018-07-17T03:45:17.482Z,12.8
2018-07-17T03:46:17.478Z,12.81
2018-07-17T03:47:17.210Z,12.83
2018-07-17T03:48:17.515Z,12.86
2018-07-17T03:49:17.454Z,12.84
2018-07-17T03:50:17.439Z,12.88
2018-07-17T03:51:17.455Z,12.84
2018-07-17T03:52:17.170Z,12.91
2018-07-17T03:53:17.162Z,12.86
2018-07-17T03:54:17.411Z,12.84
2018-07-17T03:55:17.406Z,12.91
2018-07-17T03:56:17.398Z,12.92
2018-07-17T03:57:17.135Z,12.98
2018-07-17T03:58:17.388Z,12.95
2018-07-17T03:59:17.380Z,12.95
2018-07-17T04:00:17.367Z,12.95
2018-07-17T04:01:17.360Z,12.94
2018-07-17T04:02:17.103Z,12.94
2018-07-17T04:03:17.348Z,12.94
2018-07-17T04:04:17.120Z,12.98
2018-07-17T04:05:17.339Z,12.96
2018-07-17T04:06:17.327Z,12.98
2018-07-17T04:07:17.371Z,13.02
2018-07-17T04:08:17.312Z,12.94
2018-07-17T04:09:17.307Z,12.96
2018-07-17T04:10:17.297Z,12.92
2018-07-17T04:11:17.291Z,13.06
2018-07-17T04:12:17.286Z,12.99
2018-07-17T04:13:17.289Z,13.03
2018-07-17T04:14:17.016Z,13.02
2018-07-17T04:15:17.263Z,13.07
2018-07-17T04:16:17.004Z,13.06
2018-07-17T04:17:16.995Z,13.07
2018-07-17T04:18:17.239Z,13.09
2018-07-17T04:19:17.233Z,13.02
2018-07-17T04:20:17.231Z,13.03
2018-07-17T04:21:17.220Z,13.1
2018-07-17T04:22:17.218Z,13.11
2018-07-17T04:23:17.207Z,13.13
2018-07-17T04:24:17.199Z,13.19
2018-07-17T04:25:17.193Z,13.19
2018-07-17T04:26:17.188Z,13.2
2018-07-17T04:27:17.184Z,13.24
2018-07-17T04:28:17.176Z,13.27
2018-07-17T04:29:16.910Z,13.27
2018-07-17T04:30:16.900Z,13.36
2018-07-17T04:31:17.149Z,13.4
2018-07-17T04:32:17.143Z,13.47
2018-07-17T04:33:17.141Z,13.45
2018-07-17T04:34:17.133Z,13.51
2018-07-17T04:35:17.124Z,13.57
2018-07-17T04:36:17.117Z,13.55
2018-07-17T04:37:16.851Z,13.65
2018-07-17T04:38:17.178Z,13.62
2018-07-17T04:39:17.098Z,13.69
2018-07-17T04:40:17.091Z,13.84
2018-07-17T04:41:17.083Z,13.83
2018-07-17T04:42:16.821Z,13.86
2018-07-17T04:43:17.072Z,13.9
2018-07-17T04:44:17.314Z,13.94
2018-07-17T04:45:17.057Z,13.95
2018-07-17T04:46:16.793Z,13.95
2018-07-17T04:47:16.785Z,14.08
2018-07-17T04:48:17.039Z,14.03
2018-07-17T04:49:16.772Z,14.05
2018-07-17T04:50:17.028Z,14.12
2018-07-17T04:51:17.015Z,14.09
2018-07-17T04:52:17.012Z,14.23
2018-07-17T04:53:17.003Z,14.21
2018-07-17T04:54:17.007Z,14.27
2018-07-17T04:55:16.736Z,14.3
2018-07-17T04:56:16.987Z,14.26
2018-07-17T04:57:16.980Z,14.31
2018-07-17T04:58:16.973Z,14.33
2018-07-17T04:59:16.966Z,14.39
2018-07-17T05:00:16.961Z,14.41
2018-07-17T05:01:16.954Z,14.41
2018-07-17T05:02:16.956Z,14.53
2018-07-17T05:03:16.959Z,14.46
2018-07-17T05:04:16.680Z,14.44
2018-07-17T05:05:16.949Z,14.51
2018-07-17T05:06:16.925Z,14.63
2018-07-17T05:07:16.923Z,14.66
2018-07-17T05:08:16.910Z,14.67
2018-07-17T05:09:16.904Z,14.71
2018-07-17T05:10:16.645Z,14.85
2018-07-17T05:11:16.637Z,14.97
2018-07-17T05:12:16.630Z,14.97
2018-07-17T05:13:16.887Z,15.01
2018-07-17T05:14:16.891Z,14.97
2018-07-17T05:15:16.615Z,15.12
2018-07-17T05:16:16.898Z,15.12
2018-07-17T05:17:16.605Z,15.18
2018-07-17T05:18:16.854Z,15.27
2018-07-17T05:19:16.856Z,15.34
2018-07-17T05:20:16.933Z,15.33
2018-07-17T05:21:16.628Z,15.35
2018-07-17T05:22:16.852Z,15.43
2018-07-17T05:23:16.830Z,15.4
2018-07-17T05:24:16.563Z,15.53
2018-07-17T05:25:16.301Z,15.52
2018-07-17T05:26:16.810Z,15.62
2018-07-17T05:27:16.806Z,15.7
2018-07-17T05:28:16.546Z,15.71
2018-07-17T05:29:16.803Z,15.71
2018-07-17T05:30:16.794Z,15.88
2018-07-17T05:31:16.793Z,15.91
2018-07-17T05:32:16.523Z,15.96
2018-07-17T05:33:16.772Z,15.99
2018-07-17T05:34:16.780Z,16.07
2018-07-17T05:35:16.735Z,16.14
2018-07-17T05:36:16.768Z,16.18
2018-07-17T05:37:16.758Z,16.29
2018-07-17T05:38:16.749Z,16.26
2018-07-17T05:39:16.743Z,16.25
2018-07-17T05:40:16.483Z,16.32
2018-07-17T05:41:16.738Z,16.26
2018-07-17T05:42:16.733Z,16.33
2018-07-17T05:43:16.730Z,16.36
2018-07-17T05:44:16.471Z,16.45
2018-07-17T05:45:16.458Z,16.42
2018-07-17T05:46:16.712Z,16.44
2018-07-17T05:47:16.732Z,16.49
2018-07-17T05:48:16.447Z,16.49
2018-07-17T05:49:16.698Z,16.58
2018-07-17T05:50:16.700Z,16.63
2018-07-17T05:51:16.690Z,16.69
2018-07-17T05:52:16.684Z,16.69
2018-07-17T05:53:16.679Z,16.77
2018-07-17T05:54:16.418Z,16.72
2018-07-17T05:55:16.672Z,16.81
2018-07-17T05:56:16.674Z,16.81
2018-07-17T05:57:16.666Z,16.85
2018-07-17T05:58:16.658Z,16.99
2018-07-17T05:59:16.660Z,16.95
2018-07-17T06:00:16.400Z,16.99
2018-07-17T06:01:16.394Z,17.03
2018-07-17T06:02:16.643Z,17.12
2018-07-17T06:03:16.826Z,17.21
2018-07-17T06:04:16.688Z,17.22
2018-07-17T06:05:16.640Z,17.46
2018-07-17T06:06:16.371Z,17.58
2018-07-17T06:07:16.625Z,17.58
2018-07-17T06:08:16.621Z,17.71
2018-07-17T06:09:16.357Z,17.83
2018-07-17T06:10:16.767Z,17.84
2018-07-17T06:11:16.611Z,17.92
2018-07-17T06:12:16.350Z,18.01
2018-07-17T06:13:16.603Z,18.05
2018-07-17T06:14:16.597Z,18.03
2018-07-17T06:15:16.594Z,18.06
2018-07-17T06:16:16.338Z,17.99
2018-07-17T06:17:16.588Z,17.95
2018-07-17T06:18:16.328Z,17.98
2018-07-17T06:19:16.583Z,18.08
2018-07-17T06:20:16.065Z,18.08
2018-07-17T06:21:16.319Z,18.02
2018-07-17T06:22:16.907Z,18.2
2018-07-17T06:23:16.318Z,18.11
2018-07-17T06:24:16.572Z,18.21
2018-07-17T06:25:16.815Z,18.24
2018-07-17T06:26:16.561Z,18.24
2018-07-17T06:27:16.554Z,18.34
2018-07-17T06:28:16.554Z,18.41
2018-07-17T06:29:16.295Z,18.45
2018-07-17T06:30:16.291Z,18.5
2018-07-17T06:31:16.542Z,18.54
2018-07-17T06:32:16.546Z,18.61
2018-07-17T06:33:16.281Z,18.66
2018-07-17T06:34:16.553Z,18.65
2018-07-17T06:35:16.532Z,18.61
2018-07-17T06:36:16.533Z,18.63
2018-07-17T06:37:16.529Z,18.66
2018-07-17T06:38:16.527Z,18.66
2018-07-17T06:39:16.580Z,18.65
2018-07-17T06:40:16.295Z,18.74
2018-07-17T06:41:16.259Z,18.82
2018-07-17T06:42:16.516Z,19
2018-07-17T06:43:16.511Z,19.19
2018-07-17T06:44:16.248Z,19.37
2018-07-17T06:45:16.251Z,19.64
2018-07-17T06:46:16.504Z,20
2018-07-17T06:47:16.243Z,20.27
2018-07-17T06:48:16.238Z,20.41
2018-07-17T06:49:16.237Z,20.88
2018-07-17T06:50:16.885Z,21.31
2018-07-17T06:51:16.496Z,21.89
2018-07-17T06:52:16.243Z,22.52
2018-07-17T06:53:16.491Z,23.42
2018-07-17T06:54:16.487Z,24.15
2018-07-17T06:55:16.487Z,24.63
2018-07-17T06:56:16.488Z,25.15
2018-07-17T06:57:16.512Z,25.56
2018-07-17T06:58:16.640Z,25.76
2018-07-17T06:59:16.486Z,26.04
2018-07-17T07:00:16.492Z,26.34
2018-07-17T07:01:16.488Z,26.61
2018-07-17T07:02:16.486Z,27.06
2018-07-17T07:03:16.495Z,27.66
2018-07-17T07:04:16.234Z,28.05
2018-07-17T07:05:16.314Z,28.55
2018-07-17T07:06:16.236Z,29.11
2018-07-17T07:07:16.238Z,29.6
2018-07-17T07:08:16.240Z,29.98
2018-07-17T07:09:16.245Z,30.32
2018-07-17T07:10:16.515Z,30.59
2018-07-17T07:11:16.625Z,30.89
2018-07-17T07:12:16.514Z,31.13
2018-07-17T07:13:16.262Z,31.44
2018-07-17T07:14:16.529Z,31.82
2018-07-17T07:15:16.530Z,31.93
2018-07-17T07:16:16.270Z,32.12
2018-07-17T07:17:16.541Z,32.12
2018-07-17T07:18:16.284Z,31.9
2018-07-17T07:19:16.542Z,32.15
2018-07-17T07:20:16.549Z,32.38
2018-07-17T07:21:16.040Z,32.56
2018-07-17T07:22:16.561Z,32.64
2018-07-17T07:23:16.682Z,32.75
2018-07-17T07:24:16.572Z,32.76
2018-07-17T07:25:16.576Z,32.91
2018-07-17T07:26:16.581Z,32.98
2018-07-17T07:27:16.592Z,33.13
2018-07-17T07:28:16.599Z,33.2
2018-07-17T07:29:16.656Z,33.26
2018-07-17T07:30:16.610Z,33.44
2018-07-17T07:31:16.616Z,33.36
2018-07-17T07:32:16.630Z,33.43
2018-07-17T07:33:16.637Z,33.28
2018-07-17T07:34:16.384Z,33.23
2018-07-17T07:35:16.653Z,33.28
2018-07-17T07:36:16.652Z,33.4
2018-07-17T07:37:16.507Z,33.5
2018-07-17T07:38:16.671Z,33.73
2018-07-17T07:39:16.162Z,33.85
2018-07-17T07:40:16.685Z,33.96
2018-07-17T07:41:16.434Z,33.78
2018-07-17T07:42:16.699Z,33.8
2018-07-17T07:43:16.451Z,33.59
2018-07-17T07:44:16.720Z,33.56
2018-07-17T07:45:16.724Z,33.55
2018-07-17T07:46:16.737Z,33.29
2018-07-17T07:47:16.226Z,32.67
2018-07-17T07:48:16.748Z,32.25
2018-07-17T07:49:17.094Z,31.72
2018-07-17T07:50:16.763Z,31.41
2018-07-17T07:51:16.791Z,31.31
2018-07-17T07:52:16.519Z,31.36
2018-07-17T07:53:16.784Z,31.36
2018-07-17T07:54:16.792Z,31.56
2018-07-17T07:55:16.802Z,31.82
2018-07-17T07:56:16.812Z,32.01
2018-07-17T07:57:16.559Z,32.24
2018-07-17T07:58:16.828Z,32.52
2018-07-17T07:59:16.838Z,32.47
2018-07-17T08:00:16.845Z,32.34
2018-07-17T08:01:16.845Z,32.28
2018-07-17T08:02:16.855Z,32.24
2018-07-17T08:03:16.860Z,32.42
2018-07-17T08:04:16.867Z,32.43
2018-07-17T08:05:16.879Z,32.47
2018-07-17T08:06:16.891Z,32.39
2018-07-17T08:07:16.893Z,32.43
2018-07-17T08:08:16.646Z,32.43
2018-07-17T08:09:16.908Z,32.47
2018-07-17T08:10:16.915Z,32.53
2018-07-17T08:11:16.930Z,32.62
2018-07-17T08:12:16.499Z,32.59
2018-07-17T08:13:16.417Z,32.42
2018-07-17T08:14:16.679Z,32.15
2018-07-17T08:15:16.949Z,31.9
2018-07-17T08:16:16.955Z,31.53
2018-07-17T08:17:16.699Z,31.47
2018-07-17T08:18:16.965Z,31.03
2018-07-17T08:19:16.967Z,30.71
2018-07-17T08:20:16.975Z,30.44
2018-07-17T08:21:16.978Z,30.24
2018-07-17T08:22:16.984Z,29.94
2018-07-17T08:23:16.734Z,29.54
2018-07-17T08:24:17.170Z,29.1
2018-07-17T08:25:16.743Z,28.57
2018-07-17T08:26:17.003Z,28.17
2018-07-17T08:27:17.024Z,27.75
2018-07-17T08:28:17.023Z,27.38
2018-07-17T08:29:17.022Z,27.28
2018-07-17T08:30:16.766Z,27.12
2018-07-17T08:31:17.036Z,26.97
2018-07-17T08:32:17.040Z,26.81
2018-07-17T08:33:17.038Z,26.78
2018-07-17T08:34:17.038Z,26.63
2018-07-17T08:35:17.047Z,26.54
2018-07-17T08:36:17.050Z,26.45
2018-07-17T08:37:16.793Z,26.32
2018-07-17T08:38:16.807Z,26.38
2018-07-17T08:39:16.804Z,26.42
2018-07-17T08:40:17.071Z,26.27
2018-07-17T08:41:17.071Z,26.17
2018-07-17T08:42:16.557Z,26.27
2018-07-17T08:43:16.980Z,26.27
2018-07-17T08:44:16.825Z,26.3
2018-07-17T08:45:16.829Z,26.16
2018-07-17T08:46:17.091Z,26.04
2018-07-17T08:47:17.089Z,25.99
2018-07-17T08:48:16.833Z,25.84
2018-07-17T08:49:16.897Z,25.78
2018-07-17T08:50:17.105Z,25.62
2018-07-17T08:51:17.113Z,25.49
2018-07-17T08:52:16.847Z,25.45
2018-07-17T08:53:17.117Z,25.32
2018-07-17T08:54:17.111Z,25.32
2018-07-17T08:55:16.603Z,25.26
2018-07-17T08:56:17.146Z,25.38
2018-07-17T08:57:17.121Z,25.37
2018-07-17T08:58:17.121Z,25.39
2018-07-17T08:59:17.128Z,25.34
2018-07-17T09:00:17.194Z,25.38
2018-07-17T09:01:17.136Z,25.37
2018-07-17T09:02:16.882Z,25.26
2018-07-17T09:03:17.136Z,25.23
2018-07-17T09:04:16.885Z,25.34
2018-07-17T09:05:17.149Z,25.44
2018-07-17T09:06:17.150Z,25.51
2018-07-17T09:07:17.151Z,25.7
2018-07-17T09:08:16.899Z,25.82
2018-07-17T09:09:17.157Z,25.94
2018-07-17T09:10:17.155Z,26.09
2018-07-17T09:11:16.900Z,26.06
2018-07-17T09:12:16.903Z,25.84
2018-07-17T09:13:17.137Z,25.85
2018-07-17T09:14:17.168Z,25.89
2018-07-17T09:15:17.179Z,25.91
2018-07-17T09:16:17.178Z,25.89
2018-07-17T09:17:17.178Z,25.86
2018-07-17T09:18:17.178Z,25.93
2018-07-17T09:19:16.667Z,25.99
2018-07-17T09:20:17.184Z,26.2
2018-07-17T09:21:16.929Z,26.34
2018-07-17T09:22:16.934Z,26.34
2018-07-17T09:23:16.935Z,26.37
2018-07-17T09:24:16.938Z,26.39
2018-07-17T09:25:16.985Z,26.45
2018-07-17T09:26:16.942Z,26.34
2018-07-17T09:27:16.950Z,26.01
2018-07-17T09:28:17.099Z,26.04
2018-07-17T09:29:17.210Z,26.19
2018-07-17T09:30:17.220Z,26.26
2018-07-17T09:31:17.216Z,26.26
2018-07-17T09:32:17.230Z,26.12
2018-07-17T09:33:16.707Z,26.19
2018-07-17T09:34:17.241Z,26.3
2018-07-17T09:35:16.970Z,26.34
2018-07-17T09:36:16.716Z,26.57
2018-07-17T09:37:16.984Z,26.75
2018-07-17T09:38:17.236Z,26.76
2018-07-17T09:39:17.242Z,26.78
2018-07-17T09:40:17.240Z,26.71
2018-07-17T09:41:17.250Z,26.56
2018-07-17T09:42:16.995Z,26.52
2018-07-17T09:43:17.250Z,26.5
2018-07-17T09:44:17.354Z,26.49
2018-07-17T09:45:17.255Z,26.47
2018-07-17T09:46:17.010Z,26.47
2018-07-17T09:47:17.267Z,26.53
2018-07-17T09:48:17.268Z,26.53
2018-07-17T09:49:17.265Z,26.54
2018-07-17T09:50:17.271Z,26.59
2018-07-17T09:51:17.019Z,26.75
2018-07-17T09:52:17.280Z,26.84
2018-07-17T09:53:17.286Z,26.89
2018-07-17T09:54:17.483Z,26.82
2018-07-17T09:55:17.289Z,26.78
2018-07-17T09:56:17.290Z,26.78
2018-07-17T09:57:17.297Z,26.79
2018-07-17T09:58:17.296Z,26.84
2018-07-17T09:59:17.299Z,26.64
2018-07-17T10:00:17.303Z,26.64
2018-07-17T10:01:17.098Z,26.56
2018-07-17T10:02:17.307Z,26.52
2018-07-17T10:03:17.320Z,26.38
2018-07-17T10:04:17.318Z,26.37
2018-07-17T10:05:17.316Z,26.32
2018-07-17T10:06:17.202Z,26.35
2018-07-17T10:07:17.070Z,26.44
2018-07-17T10:08:17.330Z,26.52
2018-07-17T10:09:17.332Z,26.69
2018-07-17T10:10:17.078Z,26.94
2018-07-17T10:11:17.345Z,26.93
2018-07-17T10:12:17.338Z,27
2018-07-17T10:13:17.343Z,27.12
2018-07-17T10:14:17.344Z,27.15
2018-07-17T10:15:17.354Z,27.23
2018-07-17T10:16:17.350Z,27.27
2018-07-17T10:17:17.360Z,27.33
2018-07-17T10:18:17.102Z,27.33
2018-07-17T10:19:17.109Z,27.19
2018-07-17T10:20:17.485Z,26.9
2018-07-17T10:21:17.113Z,26.78
2018-07-17T10:22:17.377Z,26.71
2018-07-17T10:23:17.378Z,26.67
2018-07-17T10:24:17.125Z,26.78
2018-07-17T10:25:17.129Z,26.87
2018-07-17T10:26:17.211Z,27.06
2018-07-17T10:27:17.395Z,27.21
2018-07-17T10:28:17.396Z,27.3
2018-07-17T10:29:17.418Z,27.42
2018-07-17T10:30:17.149Z,27.62
2018-07-17T10:31:17.153Z,27.76
2018-07-17T10:32:17.363Z,27.8
2018-07-17T10:33:17.157Z,27.93
2018-07-17T10:34:17.162Z,27.87
2018-07-17T10:35:17.163Z,27.84
2018-07-17T10:36:17.432Z,27.65
2018-07-17T10:37:17.435Z,27.37
2018-07-17T10:38:17.429Z,27.04
2018-07-17T10:39:17.437Z,26.87
2018-07-17T10:40:17.183Z,26.68
2018-07-17T10:41:17.442Z,26.61
2018-07-17T10:42:17.191Z,26.56
2018-07-17T10:43:17.201Z,26.6
2018-07-17T10:44:17.197Z,26.76
2018-07-17T10:45:17.199Z,26.78
2018-07-17T10:46:17.467Z,26.94
2018-07-17T10:47:17.463Z,27.06
2018-07-17T10:48:17.467Z,27.27
2018-07-17T10:49:16.959Z,27.42
2018-07-17T10:50:17.476Z,27.62
2018-07-17T10:51:17.221Z,27.68
2018-07-17T10:52:17.484Z,27.87
2018-07-17T10:53:17.555Z,27.83
2018-07-17T10:54:16.977Z,27.9
2018-07-17T10:55:16.980Z,28.02
2018-07-17T10:56:17.240Z,28.16
2018-07-17T10:57:17.506Z,28.23
2018-07-17T10:58:17.507Z,28.24
2018-07-17T10:59:17.254Z,28.3
2018-07-17T11:00:17.254Z,28.31
2018-07-17T11:01:17.260Z,28.43
2018-07-17T11:02:17.009Z,28.38
2018-07-17T11:03:17.269Z,28.43
2018-07-17T11:04:17.528Z,28.43
2018-07-17T11:05:17.021Z,28.43
2018-07-17T11:06:17.023Z,28.45
2018-07-17T11:07:17.031Z,28.39
2018-07-17T11:08:17.578Z,28.48
2018-07-17T11:09:17.301Z,28.43
2018-07-17T11:10:17.553Z,28.39
2018-07-17T11:11:17.306Z,28.16
2018-07-17T11:12:17.561Z,27.8
2018-07-17T11:13:17.309Z,27.43
2018-07-17T11:14:17.567Z,27.24
2018-07-17T11:15:17.573Z,27.12
2018-07-17T11:16:17.583Z,27.23
2018-07-17T11:17:17.581Z,27.27
2018-07-17T11:18:17.328Z,27.31
2018-07-17T11:19:17.334Z,27.49
2018-07-17T11:20:17.339Z,27.52
2018-07-17T11:21:17.597Z,27.68
2018-07-17T11:22:17.349Z,27.8
2018-07-17T11:23:17.604Z,27.8
2018-07-17T11:24:17.355Z,27.94
2018-07-17T11:25:17.612Z,28.02
2018-07-17T11:26:17.617Z,27.87
2018-07-17T11:27:17.620Z,27.72
2018-07-17T11:28:17.626Z,27.61
2018-07-17T11:29:17.118Z,27.43
2018-07-17T11:30:17.642Z,27.43
2018-07-17T11:31:17.637Z,27.52
2018-07-17T11:32:17.644Z,27.53
2018-07-17T11:33:17.131Z,27.55
2018-07-17T11:34:17.392Z,27.57
2018-07-17T11:35:17.396Z,27.66
2018-07-17T11:36:17.659Z,27.75
2018-07-17T11:37:17.661Z,27.75
2018-07-17T11:38:17.675Z,27.76
2018-07-17T11:39:17.671Z,27.75
2018-07-17T11:40:17.682Z,27.86
2018-07-17T11:41:17.418Z,27.79
2018-07-17T11:42:17.679Z,27.87
2018-07-17T11:43:17.738Z,27.91
2018-07-17T11:44:17.691Z,27.9
2018-07-17T11:45:17.446Z,27.99
2018-07-17T11:46:17.441Z,27.79
2018-07-17T11:47:17.444Z,27.72
2018-07-17T11:48:17.716Z,27.43
2018-07-17T11:49:17.711Z,27.31
2018-07-17T11:50:17.714Z,27.36
2018-07-17T11:51:17.725Z,27.27
2018-07-17T11:52:17.722Z,27.33
2018-07-17T11:53:17.559Z,27.34
2018-07-17T11:54:17.724Z,27.28
2018-07-17T11:55:17.736Z,27.38
2018-07-17T11:56:17.731Z,27.45
2018-07-17T11:57:17.735Z,27.46
2018-07-17T11:58:17.491Z,27.51
2018-07-17T11:59:17.714Z,27.62
2018-07-17T12:00:17.749Z,27.68
2018-07-17T12:01:17.758Z,27.69
2018-07-17T12:02:17.756Z,27.52
2018-07-17T12:03:17.502Z,27.38
2018-07-17T12:04:17.764Z,27.27
2018-07-17T12:05:17.767Z,27.26
2018-07-17T12:06:17.518Z,27.27
2018-07-17T12:07:17.777Z,27.34
2018-07-17T12:08:17.803Z,27.46
2018-07-17T12:09:17.528Z,27.55
2018-07-17T12:10:17.530Z,27.48
2018-07-17T12:11:17.534Z,27.45
2018-07-17T12:12:17.539Z,27.43
2018-07-17T12:13:17.809Z,27.59
2018-07-17T12:14:17.545Z,27.55
2018-07-17T12:15:17.550Z,27.66
2018-07-17T12:16:17.810Z,27.69
2018-07-17T12:17:17.301Z,27.68
2018-07-17T12:18:17.304Z,27.68
2018-07-17T12:19:17.820Z,27.71
2018-07-17T12:20:17.732Z,27.76
2018-07-17T12:21:17.828Z,27.75
2018-07-17T12:22:17.842Z,27.83
2018-07-17T12:23:17.840Z,27.84
2018-07-17T12:24:17.840Z,27.87
2018-07-17T12:25:17.592Z,27.94
2018-07-17T12:26:17.853Z,27.89
2018-07-17T12:27:17.854Z,27.89
2018-07-17T12:28:17.860Z,27.81
2018-07-17T12:29:17.858Z,27.79
2018-07-17T12:30:17.866Z,27.71
2018-07-17T12:31:17.611Z,27.76
2018-07-17T12:32:17.872Z,27.74
2018-07-17T12:33:17.618Z,27.68
2018-07-17T12:34:17.627Z,27.72
2018-07-17T12:35:17.888Z,27.76
2018-07-17T12:36:17.891Z,27.81
2018-07-17T12:37:17.639Z,27.84
2018-07-17T12:38:17.391Z,28.05
2018-07-17T12:39:17.898Z,28.01
2018-07-17T12:40:17.649Z,27.91
2018-07-17T12:41:17.908Z,27.76
2018-07-17T12:42:17.921Z,27.74
2018-07-17T12:43:17.918Z,27.55
2018-07-17T12:44:17.709Z,27.31
2018-07-17T12:45:17.926Z,27.19
2018-07-17T12:46:17.927Z,27.15
2018-07-17T12:47:17.676Z,27.15
2018-07-17T12:48:17.936Z,27.27
2018-07-17T12:49:17.682Z,27.36
2018-07-17T12:50:17.947Z,27.48
2018-07-17T12:51:17.952Z,27.52
2018-07-17T12:52:17.955Z,27.66
2018-07-17T12:53:17.956Z,27.79
2018-07-17T12:54:17.962Z,27.83